createdAt,value
2022-12-14T00:04:09.698Z,5.10
2022-12-14T00:09:16.132Z,9.57
2022-12-14T00:14:22.807Z,5.35
2022-12-14T00:19:29.446Z,9.17
2022-12-14T00:24:37.195Z,9.80
2022-12-14T00:29:43.850Z,8.80
2022-12-14T00:34:50.376Z,7.07
2022-12-14T00:39:56.588Z,8.43
2022-12-14T00:45:04.910Z,8.43
2022-12-14T00:50:11.478Z,7.60
2022-12-14T00:55:18.765Z,9.57
2022-12-14T01:00:25.130Z,8.90
2022-12-14T01:05:32.122Z,10.00
2022-12-14T01:10:42.482Z,8.13
2022-12-14T01:15:49.146Z,11.17
2022-12-14T01:20:55.909Z,11.93
2022-12-14T01:26:02.331Z,8.37
2022-12-14T01:31:12.808Z,8.37
2022-12-14T01:36:26.702Z,8.67
2022-12-14T01:41:46.412Z,9.43
2022-12-14T01:47:12.385Z,7.80
2022-12-14T01:52:29.247Z,8.63
2022-12-14T01:57:46.774Z,7.87
2022-12-14T02:03:09.465Z,9.15
2022-12-14T02:08:18.987Z,8.87
2022-12-14T02:13:43.728Z,8.33
2022-12-14T02:18:51.644Z,7.23
2022-12-14T02:24:27.356Z,8.33
2022-12-14T02:30:04.400Z,9.18
2022-12-14T02:35:30.303Z,8.13
2022-12-14T02:41:05.550Z,8.90
2022-12-14T02:46:21.969Z,7.63
2022-12-14T02:51:38.524Z,9.13
2022-12-14T02:56:55.847Z,8.77
2022-12-14T03:02:05.731Z,8.27
2022-12-14T03:07:54.840Z,8.67
2022-12-14T03:13:11.865Z,7.70
2022-12-14T03:18:20.856Z,7.87
2022-12-14T03:23:31.767Z,7.00
2022-12-14T03:28:48.021Z,7.63
2022-12-14T03:33:58.164Z,8.38
2022-12-14T03:39:08.977Z,9.93
2022-12-14T03:44:49.668Z,9.98
2022-12-14T03:50:10.485Z,9.83
2022-12-14T04:01:10.547Z,8.90
2022-12-14T04:06:30.657Z,9.07
2022-12-14T04:12:02.518Z,8.60
2022-12-14T04:17:31.123Z,7.63
2022-12-14T04:22:44.275Z,9.10
2022-12-14T04:28:03.778Z,9.03
2022-12-14T04:33:31.005Z,11.13
2022-12-14T04:38:39.668Z,10.23
2022-12-14T04:43:49.038Z,11.77
2022-12-14T04:49:05.946Z,12.87
2022-12-14T04:54:20.522Z,13.00
2022-12-14T04:59:27.317Z,13.08
2022-12-14T05:05:03.127Z,13.20
2022-12-14T05:10:18.955Z,11.53
2022-12-14T05:15:30.428Z,13.53
2022-12-14T05:20:36.738Z,11.83
2022-12-14T05:25:43.652Z,12.03
2022-12-14T05:30:50.907Z,11.60
2022-12-14T05:35:57.536Z,12.50
2022-12-14T05:41:04.110Z,11.80
2022-12-14T05:46:12.216Z,15.18
2022-12-14T05:51:19.564Z,13.20
2022-12-14T05:56:26.272Z,13.20
2022-12-14T06:01:32.724Z,11.53
2022-12-14T06:06:39.687Z,13.40
2022-12-14T06:11:47.802Z,12.43
2022-12-14T06:16:54.062Z,13.97
2022-12-14T06:22:01.234Z,13.38
2022-12-14T06:27:07.469Z,12.90
2022-12-14T06:32:13.796Z,12.07
2022-12-14T06:37:21.137Z,10.72
2022-12-14T06:42:28.230Z,15.43
2022-12-14T06:47:34.904Z,11.60
2022-12-14T06:57:46.779Z,14.33
2022-12-14T07:02:53.220Z,15.93
2022-12-14T07:08:00.029Z,16.87
2022-12-14T07:13:06.108Z,18.93
2022-12-14T07:18:13.171Z,15.83
2022-12-14T07:23:23.447Z,15.60
2022-12-14T07:28:30.406Z,17.55
2022-12-14T07:33:37.603Z,17.90
2022-12-14T07:38:46.000Z,16.43
2022-12-14T07:43:54.764Z,16.13
2022-12-14T07:49:03.256Z,16.60
2022-12-14T07:54:11.059Z,18.10
2022-12-14T07:59:19.336Z,20.54
2022-12-14T08:04:26.350Z,17.05
2022-12-14T08:09:33.043Z,17.93
2022-12-14T08:14:39.638Z,21.23
2022-12-14T08:19:45.861Z,24.67
2022-12-14T08:24:52.052Z,28.75
2022-12-14T08:29:58.342Z,34.88
2022-12-14T08:35:05.720Z,39.15
2022-12-14T08:40:13.199Z,36.50
2022-12-14T08:45:19.588Z,29.05
2022-12-14T08:50:27.107Z,27.63
2022-12-14T08:55:38.297Z,31.10
2022-12-14T09:00:42.064Z,34.13
2022-12-14T09:10:54.730Z,32.43
2022-12-14T09:16:07.804Z,33.00
2022-12-14T09:21:15.029Z,28.97
2022-12-14T09:26:24.132Z,26.70
2022-12-14T09:31:30.768Z,31.90
2022-12-14T09:36:38.360Z,30.75
2022-12-14T09:42:01.472Z,36.73
2022-12-14T09:47:19.523Z,35.37
2022-12-14T09:52:45.160Z,29.83
2022-12-14T09:57:56.762Z,18.10
2022-12-14T10:03:24.544Z,27.77
2022-12-14T10:08:35.712Z,28.40
2022-12-14T10:14:19.894Z,27.47
2022-12-14T10:20:00.744Z,30.10
2022-12-14T10:25:15.522Z,30.40
2022-12-14T10:30:23.528Z,31.07
2022-12-14T10:35:55.070Z,30.57
2022-12-14T10:41:22.708Z,31.20
2022-12-14T10:46:52.752Z,32.47
2022-12-14T10:52:19.049Z,30.97
2022-12-14T10:57:28.576Z,32.97
2022-12-14T11:02:40.445Z,28.55
2022-12-14T11:07:48.586Z,32.37
2022-12-14T11:13:16.810Z,29.13
2022-12-14T11:18:34.296Z,30.60
2022-12-14T11:23:45.253Z,29.00
2022-12-14T11:28:58.283Z,30.70
2022-12-14T11:34:10.369Z,30.93
2022-12-14T11:39:21.933Z,32.35
2022-12-14T11:44:31.335Z,31.97
2022-12-14T11:49:45.210Z,32.37
2022-12-14T11:55:02.348Z,33.57
2022-12-14T12:00:28.477Z,32.42
2022-12-14T12:05:40.129Z,30.90
2022-12-14T12:10:50.578Z,33.30
2022-12-14T12:16:13.663Z,28.27
2022-12-14T12:21:28.225Z,29.63
2022-12-14T12:26:53.739Z,32.73
2022-12-14T12:32:10.797Z,31.35
2022-12-14T12:37:36.630Z,34.43
2022-12-14T12:43:00.295Z,35.90
2022-12-14T12:48:18.171Z,33.25
2022-12-14T12:53:46.434Z,34.30
2022-12-14T12:58:54.396Z,33.90
2022-12-14T13:04:04.601Z,31.37
2022-12-14T13:09:38.896Z,32.35
2022-12-14T13:14:50.050Z,35.63
2022-12-14T13:20:00.080Z,35.73
2022-12-14T13:25:17.883Z,36.87
2022-12-14T13:30:46.943Z,36.00
2022-12-14T13:36:21.781Z,33.77
2022-12-14T13:42:05.899Z,33.25
2022-12-14T13:47:20.263Z,33.83
2022-12-14T13:52:40.166Z,32.98
2022-12-14T13:57:46.586Z,33.77
2022-12-14T14:02:54.975Z,33.00
2022-12-14T14:08:29.442Z,32.87
2022-12-14T14:13:35.635Z,33.43
2022-12-14T14:18:55.882Z,31.13
2022-12-14T14:24:16.976Z,30.45
2022-12-14T14:29:35.143Z,30.52
2022-12-14T14:34:49.304Z,32.40
2022-12-14T14:40:26.161Z,37.90
2022-12-14T14:45:40.950Z,41.67
2022-12-14T14:50:49.735Z,33.75
2022-12-14T14:56:03.855Z,30.95
2022-12-14T15:01:22.892Z,33.97
2022-12-14T15:06:41.782Z,31.87
2022-12-14T15:11:52.858Z,32.40
2022-12-14T15:17:02.283Z,32.38
2022-12-14T15:22:16.655Z,32.07
2022-12-14T15:27:35.750Z,22.20
2022-12-14T15:32:48.163Z,32.83
2022-12-14T15:38:00.414Z,31.20
2022-12-14T15:43:19.842Z,31.33
2022-12-14T15:48:33.609Z,31.07
2022-12-14T15:53:49.944Z,32.00
2022-12-14T15:59:00.257Z,33.27
2022-12-14T16:04:15.467Z,32.77
2022-12-14T16:09:29.449Z,34.73
2022-12-14T16:14:46.513Z,34.53
2022-12-14T16:20:01.049Z,31.97
2022-12-14T16:25:20.276Z,31.73
2022-12-14T16:30:34.160Z,30.33
2022-12-14T16:35:40.697Z,33.83
2022-12-14T16:41:00.318Z,34.97
2022-12-14T16:46:14.780Z,37.83
2022-12-14T16:51:58.303Z,37.40
2022-12-14T16:56:45.692Z,41.10
2022-12-14T17:01:53.590Z,39.33
2022-12-14T17:07:02.280Z,45.97
2022-12-14T17:12:15.553Z,37.70
2022-12-14T17:17:33.310Z,47.00
2022-12-14T17:22:42.520Z,49.03
2022-12-14T17:27:49.930Z,43.57
2022-12-14T17:32:57.940Z,37.73
2022-12-14T17:38:07.098Z,38.40
2022-12-14T17:43:17.142Z,41.20
2022-12-14T17:48:23.520Z,43.48
2022-12-14T17:53:33.607Z,83.05
2022-12-14T17:58:45.094Z,47.33
2022-12-14T18:03:52.450Z,46.40
2022-12-14T18:08:59.789Z,60.77
2022-12-14T18:14:06.894Z,46.67
2022-12-14T18:19:16.491Z,39.17
2022-12-14T18:24:26.208Z,42.07
2022-12-14T18:29:34.477Z,43.15
2022-12-14T18:34:43.584Z,45.00
2022-12-14T18:39:50.728Z,39.03
2022-12-14T18:45:00.329Z,40.85
2022-12-14T18:50:07.999Z,39.37
2022-12-14T18:55:18.753Z,35.47
2022-12-14T19:00:29.752Z,36.17
2022-12-14T19:05:37.431Z,36.60
2022-12-14T19:10:48.559Z,35.60
2022-12-14T19:15:55.625Z,35.53
2022-12-14T19:21:02.027Z,35.30
2022-12-14T19:26:09.604Z,38.80
2022-12-14T19:31:16.332Z,34.58
2022-12-14T19:36:23.169Z,34.67
2022-12-14T19:41:30.157Z,37.78
2022-12-14T19:46:36.775Z,33.73
2022-12-14T19:51:43.732Z,32.30
2022-12-14T19:56:52.822Z,32.17
2022-12-14T20:02:03.739Z,30.20
2022-12-14T20:07:15.107Z,32.08
2022-12-14T20:12:22.759Z,33.50
2022-12-14T20:17:30.868Z,32.80
2022-12-14T20:22:37.658Z,31.90
2022-12-14T20:27:46.653Z,33.40
2022-12-14T20:32:53.504Z,30.40
2022-12-14T20:38:01.261Z,29.90
2022-12-14T20:43:08.369Z,31.93
2022-12-14T20:48:16.281Z,32.47
2022-12-14T20:53:23.656Z,33.38
2022-12-14T20:58:29.925Z,34.67
2022-12-14T21:03:37.330Z,33.00
2022-12-14T21:09:02.778Z,34.83
2022-12-14T21:14:10.270Z,36.13
2022-12-14T21:19:19.543Z,35.10
2022-12-14T21:29:36.133Z,34.97
2022-12-14T21:39:54.149Z,33.73
2022-12-14T21:44:58.499Z,34.13
2022-12-14T21:50:06.334Z,32.47
2022-12-14T21:55:14.400Z,35.40
2022-12-14T22:00:21.714Z,36.50
2022-12-14T22:05:28.340Z,36.30
2022-12-14T22:10:35.704Z,34.03
2022-12-14T22:15:41.922Z,38.25
2022-12-14T22:25:54.879Z,37.20
2022-12-14T22:31:05.780Z,39.27
2022-12-14T22:36:13.381Z,38.30
2022-12-14T22:41:21.828Z,41.65
2022-12-14T22:46:29.461Z,39.75
2022-12-14T22:51:36.244Z,34.77
2022-12-14T22:56:47.490Z,32.13
2022-12-14T23:01:54.928Z,37.67
2022-12-14T23:07:01.460Z,37.38
2022-12-14T23:17:49.637Z,34.40
2022-12-14T23:23:14.276Z,32.60
2022-12-14T23:28:39.256Z,33.00
2022-12-14T23:34:03.254Z,31.97
2022-12-14T23:39:27.366Z,29.07
2022-12-14T23:44:52.148Z,26.90
2022-12-14T23:50:16.361Z,30.03
2022-12-14T23:55:40.745Z,35.28
